Time;durP1;ratioP1;P1;durP2;ratioP2;P2;SDS_P1;SDS_P2;PMS_P1;PMS_P2;Temp;Humidity;BMP_temperature;BMP_pressure;BME280_temperature;BME280_humidity;BME280_pressure;Samples;Min_cycle;Max_cycle;Signal;HPM_P1;HPM_P2
2022/03/11 00:00:31;;;;;;;36.03;20.90;;;17.50;64.00;;;;;;5071201;28;20056;-17
2022/03/11 00:02:57;;;;;;;36.35;20.73;;;17.50;63.90;;;;;;5079820;28;20599;-17
2022/03/11 00:05:23;;;;;;;34.42;20.48;;;17.50;63.90;;;;;;5070898;28;20037;-17
2022/03/11 00:07:48;;;;;;;36.65;20.10;;;17.50;63.80;;;;;;5083695;28;20080;-17
2022/03/11 00:10:14;;;;;;;32.97;19.33;;;17.50;63.80;;;;;;5080569;28;20032;-17
2022/03/11 00:12:40;;;;;;;31.58;18.88;;;17.50;63.90;;;;;;5056861;28;20036;-17
2022/03/11 00:15:06;;;;;;;34.88;19.15;;;17.40;64.00;;;;;;5056205;28;20029;-17
2022/03/11 00:17:32;;;;;;;33.60;18.83;;;17.40;64.00;;;;;;5055940;28;20024;-17
2022/03/11 00:19:58;;;;;;;33.50;18.92;;;17.40;63.90;;;;;;5055017;28;20607;-17
2022/03/11 00:22:23;;;;;;;30.48;19.05;;;17.40;64.00;;;;;;5064136;28;20393;-17
2022/03/11 00:24:49;;;;;;;30.88;18.25;;;17.40;64.00;;;;;;5063820;28;20508;-17
2022/03/11 00:27:15;;;;;;;31.13;18.85;;;17.40;64.10;;;;;;5078996;28;20036;-17
2022/03/11 00:29:40;;;;;;;34.63;19.20;;;17.40;64.00;;;;;;5069939;28;20060;-17
2022/03/11 00:32:06;;;;;;;30.48;18.05;;;17.30;64.00;;;;;;5059919;28;20056;-17
2022/03/11 00:34:32;;;;;;;31.08;18.08;;;17.30;64.10;;;;;;5078061;28;20021;-17
2022/03/11 00:36:58;;;;;;;32.13;18.88;;;17.30;63.90;;;;;;5061477;28;20555;-17
2022/03/11 00:39:24;;;;;;;29.38;17.27;;;17.30;64.00;;;;;;5059700;28;20086;-17
2022/03/11 00:41:49;;;;;;;26.83;15.60;;;17.30;64.80;;;;;;5058476;28;20032;-17
2022/03/11 00:44:15;;;;;;;28.95;16.75;;;17.30;64.00;;;;;;5060353;28;20134;-17
2022/03/11 00:46:41;;;;;;;26.50;15.93;;;17.30;63.90;;;;;;5079689;28;20040;-17
2022/03/11 00:49:06;;;;;;;27.80;16.80;;;17.30;64.00;;;;;;5079019;28;20517;-17
2022/03/11 00:51:33;;;;;;;24.08;15.23;;;17.30;64.00;;;;;;5079475;28;20028;-17
2022/03/11 00:53:58;;;;;;;26.73;15.30;;;17.30;64.00;;;;;;5059221;28;20072;-17
2022/03/11 00:56:25;;;;;;;27.92;15.50;;;17.30;64.00;;;;;;5059554;28;20029;-17
2022/03/11 00:58:50;;;;;;;25.77;15.90;;;17.30;64.10;;;;;;5059436;28;20024;-17
2022/03/11 01:01:16;;;;;;;24.60;14.57;;;17.30;64.00;;;;;;5059493;28;20024;-17
2022/03/11 01:03:41;;;;;;;26.25;14.98;;;17.30;64.00;;;;;;5095786;28;20028;-17
2022/03/11 01:06:07;;;;;;;26.00;15.63;;;17.30;63.90;;;;;;5075473;28;20025;-17
2022/03/11 01:08:32;;;;;;;24.35;15.30;;;17.30;63.80;;;;;;5098883;28;20121;-17
2022/03/11 01:10:58;;;;;;;25.83;15.07;;;17.30;63.80;;;;;;5062116;28;20025;-17
2022/03/11 01:13:24;;;;;;;25.88;14.73;;;17.40;63.70;;;;;;5059048;28;20032;-17
2022/03/11 01:15:49;;;;;;;24.60;14.35;;;17.30;63.80;;;;;;5059064;28;20053;-17
2022/03/11 01:18:15;;;;;;;23.17;13.63;;;17.20;63.90;;;;;;5058949;28;20032;-17
2022/03/11 01:20:40;;;;;;;20.55;12.95;;;17.20;63.90;;;;;;5058405;28;20395;-17
2022/03/11 01:23:06;;;;;;;20.92;12.38;;;17.20;63.70;;;;;;5058804;28;20773;-17
2022/03/11 01:25:31;;;;;;;23.20;13.45;;;17.30;63.70;;;;;;5058823;28;20440;-17
2022/03/11 01:27:57;;;;;;;19.88;12.63;;;17.30;63.70;;;;;;5064143;28;20077;-17
2022/03/11 01:30:23;;;;;;;20.95;13.48;;;17.30;63.70;;;;;;5078795;28;20036;-17
2022/03/11 01:32:48;;;;;;;21.67;12.75;;;17.30;63.80;;;;;;5062767;28;20032;-17
2022/03/11 01:35:14;;;;;;;20.70;12.95;;;17.30;63.60;;;;;;5058532;28;20051;-17
2022/03/11 01:37:40;;;;;;;19.40;12.35;;;17.30;63.50;;;;;;5058402;28;20490;-17
2022/03/11 01:40:06;;;;;;;21.58;13.52;;;17.30;63.50;;;;;;5062160;28;20039;-17
2022/03/11 01:42:36;;;;;;;16.95;11.15;;;17.20;63.70;;;;;;5078789;28;20035;-17
2022/03/11 01:45:05;;;;;;;19.20;11.55;;;17.20;63.70;;;;;;5078606;28;20067;-17
2022/03/11 01:47:31;;;;;;;18.35;11.10;;;17.20;63.80;;;;;;5078710;28;20029;-17
2022/03/11 01:49:56;;;;;;;19.25;12.32;;;17.20;63.70;;;;;;5069558;28;20090;-17
2022/03/11 01:52:22;;;;;;;17.45;11.82;;;17.20;63.80;;;;;;5058051;28;20036;-17
2022/03/11 01:54:49;;;;;;;17.45;11.73;;;17.30;63.60;;;;;;5058272;28;20149;-17
2022/03/11 01:57:14;;;;;;;16.30;11.65;;;17.20;63.60;;;;;;5041121;28;20028;-17
2022/03/11 01:59:40;;;;;;;15.15;10.93;;;17.20;63.50;;;;;;5058099;28;20032;-17
2022/03/11 02:02:06;;;;;;;17.85;11.43;;;17.20;63.60;;;;;;5068325;28;20024;-17
2022/03/11 02:04:32;;;;;;;15.70;10.57;;;17.30;63.50;;;;;;5081219;28;20037;-17
2022/03/11 02:06:57;;;;;;;14.30;9.75;;;17.20;63.50;;;;;;5071453;28;20034;-17
2022/03/11 02:09:23;;;;;;;16.05;9.88;;;17.30;63.30;;;;;;5098130;28;20110;-17
2022/03/11 02:11:49;;;;;;;15.50;10.02;;;17.30;63.30;;;;;;5080926;28;20025;-17
2022/03/11 02:14:14;;;;;;;14.57;9.52;;;17.20;63.30;;;;;;5057806;28;20029;-17
2022/03/11 02:16:40;;;;;;;14.77;9.90;;;17.20;63.50;;;;;;5057988;28;20032;-17
2022/03/11 02:19:06;;;;;;;12.95;9.48;;;17.20;63.40;;;;;;5057284;28;20072;-17
2022/03/11 02:21:36;;;;;;;13.82;9.23;;;17.30;63.30;;;;;;5057936;28;20021;-17
2022/03/11 02:24:01;;;;;;;12.43;9.10;;;17.20;63.50;;;;;;5057626;28;20519;-17
2022/03/11 02:26:28;;;;;;;14.55;10.60;;;17.20;63.40;;;;;;5057550;28;20056;-17
2022/03/11 02:28:55;;;;;;;13.63;8.75;;;17.20;63.60;;;;;;5070388;28;20080;-17
2022/03/11 02:31:23;;;;;;;13.15;9.30;;;17.20;63.60;;;;;;5067238;28;20033;-17
2022/03/11 02:33:49;;;;;;;11.18;8.70;;;17.20;63.60;;;;;;5057631;28;20033;-17
2022/03/11 02:36:14;;;;;;;11.50;9.27;;;17.20;63.60;;;;;;5057387;28;20024;-17
2022/03/11 02:38:40;;;;;;;14.88;9.98;;;17.10;63.60;;;;;;5057173;28;20033;-17
2022/03/11 02:41:06;;;;;;;11.73;8.63;;;17.20;63.60;;;;;;5057368;28;20035;-17
2022/03/11 02:43:32;;;;;;;12.70;8.57;;;17.20;63.50;;;;;;5057373;28;20029;-17
2022/03/11 02:45:57;;;;;;;13.02;9.38;;;17.20;63.60;;;;;;5056807;28;20021;-17
2022/03/11 02:48:23;;;;;;;13.13;8.40;;;17.10;63.60;;;;;;5056804;28;20036;-17
2022/03/11 02:50:49;;;;;;;12.55;9.07;;;17.10;63.50;;;;;;5056840;28;20021;-17
2022/03/11 02:53:14;;;;;;;10.80;8.57;;;17.20;63.60;;;;;;5057019;28;20112;-17
2022/03/11 02:55:40;;;;;;;9.63;7.55;;;17.20;63.40;;;;;;5056846;28;20482;-17
2022/03/11 02:58:06;;;;;;;11.35;8.35;;;17.20;63.40;;;;;;5057230;28;20025;-17
2022/03/11 03:00:31;;;;;;;11.20;8.45;;;17.20;63.40;;;;;;5056861;28;20024;-17
2022/03/11 03:02:57;;;;;;;12.07;8.15;;;17.20;63.30;;;;;;5081349;28;20032;-17
2022/03/11 03:05:22;;;;;;;11.93;8.43;;;17.20;63.20;;;;;;5069303;28;20107;-17
2022/03/11 03:07:48;;;;;;;9.48;8.30;;;17.10;63.40;;;;;;5084482;28;20028;-17
2022/03/11 03:10:14;;;;;;;9.18;7.68;;;17.10;63.40;;;;;;5096927;28;20024;-17
2022/03/11 03:12:39;;;;;;;10.23;7.57;;;17.20;63.50;;;;;;5089224;28;20048;-17
2022/03/11 03:15:06;;;;;;;9.00;6.90;;;17.20;63.50;;;;;;5056929;28;20029;-17
2022/03/11 03:17:32;;;;;;;10.38;7.82;;;17.20;63.50;;;;;;5056774;28;20545;-17
2022/03/11 03:19:57;;;;;;;11.18;8.18;;;17.20;63.30;;;;;;5056379;28;20462;-17
2022/03/11 03:22:23;;;;;;;10.60;8.13;;;17.20;63.30;;;;;;5056678;28;20086;-17
2022/03/11 03:24:49;;;;;;;9.55;7.60;;;17.20;63.40;;;;;;5068792;28;20063;-17
2022/03/11 03:27:15;;;;;;;9.57;6.78;;;17.20;63.20;;;;;;5072161;28;20017;-17
2022/03/11 03:29:40;;;;;;;7.70;6.90;;;17.20;63.40;;;;;;5075874;28;20456;-17
2022/03/11 03:32:06;;;;;;;8.77;6.72;;;17.10;63.50;;;;;;5067837;28;20436;-17
2022/03/11 03:34:34;;;;;;;7.50;6.63;;;17.20;63.30;;;;;;5056285;28;20082;-17
2022/03/11 03:37:01;;;;;;;7.00;6.30;;;17.20;63.30;;;;;;5056071;28;20425;-17
2022/03/11 03:39:27;;;;;;;8.60;6.88;;;17.10;63.40;;;;;;5056508;28;20098;-17
2022/03/11 03:41:53;;;;;;;6.60;5.90;;;17.10;63.50;;;;;;5060678;28;20036;-17
2022/03/11 03:44:18;;;;;;;7.72;6.43;;;17.20;63.40;;;;;;5076574;28;20029;-17
2022/03/11 03:46:44;;;;;;;7.85;6.15;;;17.10;63.50;;;;;;5069336;28;20029;-17
2022/03/11 03:49:10;;;;;;;6.80;5.80;;;17.10;63.40;;;;;;5056301;28;20437;-17
2022/03/11 03:51:38;;;;;;;8.18;6.20;;;17.20;63.40;;;;;;5056152;28;20033;-17
2022/03/11 03:54:04;;;;;;;6.53;5.88;;;17.10;63.40;;;;;;5056403;28;20029;-17
2022/03/11 03:56:29;;;;;;;8.40;6.35;;;17.20;63.30;;;;;;5057458;28;20021;-17
2022/03/11 03:58:55;;;;;;;7.40;6.32;;;17.20;63.40;;;;;;5060478;28;20025;-17
2022/03/11 04:01:20;;;;;;;7.10;5.85;;;17.20;63.20;;;;;;5059938;28;20033;-17
2022/03/11 04:03:46;;;;;;;7.97;6.60;;;17.20;63.30;;;;;;5098291;28;20106;-17
2022/03/11 04:06:12;;;;;;;6.05;5.45;;;17.20;63.40;;;;;;5067179;28;20055;-17
2022/03/11 04:08:37;;;;;;;6.10;5.50;;;17.20;63.50;;;;;;5083937;28;20032;-17
2022/03/11 04:11:03;;;;;;;6.78;5.68;;;17.20;63.40;;;;;;5059615;28;20495;-17
2022/03/11 04:13:29;;;;;;;6.68;6.03;;;17.10;63.80;;;;;;5077258;28;20036;-17
2022/03/11 04:15:54;;;;;;;5.88;5.30;;;17.10;63.70;;;;;;5060539;28;20048;-17
2022/03/11 04:18:20;;;;;;;7.55;5.70;;;17.10;63.60;;;;;;5060079;28;20029;-17
2022/03/11 04:20:45;;;;;;;6.28;5.68;;;17.10;63.60;;;;;;5059472;28;20413;-17
2022/03/11 04:23:11;;;;;;;5.78;5.28;;;17.10;63.70;;;;;;5059982;28;20041;-17
2022/03/11 04:25:37;;;;;;;5.50;5.00;;;17.20;63.60;;;;;;5059838;28;20494;-17
2022/03/11 04:28:02;;;;;;;6.00;5.38;;;17.20;63.40;;;;;;5066026;28;20036;-17
2022/03/11 04:30:28;;;;;;;5.72;5.22;;;17.10;63.50;;;;;;5059402;28;20032;-17
2022/03/11 04:32:53;;;;;;;5.72;5.15;;;17.10;63.70;;;;;;5059924;28;20029;-17
2022/03/11 04:35:19;;;;;;;5.72;5.07;;;17.10;63.60;;;;;;5059525;28;20040;-17
2022/03/11 04:37:45;;;;;;;5.90;5.40;;;17.20;63.40;;;;;;5059907;28;20083;-17
2022/03/11 04:40:11;;;;;;;6.07;5.40;;;17.20;63.40;;;;;;5059676;28;20031;-17
2022/03/11 04:42:36;;;;;;;5.95;4.85;;;17.20;63.40;;;;;;5059069;28;20044;-17
2022/03/11 04:45:03;;;;;;;5.95;5.45;;;17.20;63.40;;;;;;5059622;28;20029;-17
2022/03/11 04:47:28;;;;;;;5.88;5.25;;;17.10;63.40;;;;;;5059594;28;20424;-17
2022/03/11 04:49:54;;;;;;;5.80;5.30;;;17.10;63.40;;;;;;5059401;28;20099;-17
2022/03/11 04:52:20;;;;;;;5.78;5.28;;;17.10;63.40;;;;;;5059235;28;20036;-17
2022/03/11 04:54:45;;;;;;;5.40;4.90;;;17.10;63.40;;;;;;5059710;28;20036;-17
2022/03/11 04:57:11;;;;;;;6.07;5.43;;;17.20;63.40;;;;;;5059176;28;20369;-17
2022/03/11 04:59:36;;;;;;;4.93;4.43;;;17.10;63.40;;;;;;5059528;28;20021;-17
2022/03/11 05:02:02;;;;;;;4.97;4.57;;;17.10;63.60;;;;;;5068214;28;20031;-17
2022/03/11 05:04:28;;;;;;;4.80;4.40;;;17.10;63.50;;;;;;5062958;28;20028;-17
2022/03/11 05:06:53;;;;;;;5.18;4.15;;;17.10;63.50;;;;;;5069782;28;20020;-17
2022/03/11 05:09:19;;;;;;;4.85;4.38;;;17.10;63.80;;;;;;5059431;28;20021;-17
2022/03/11 05:11:44;;;;;;;5.28;4.78;;;17.10;63.80;;;;;;5058896;28;20458;-17
2022/03/11 05:14:10;;;;;;;5.00;4.60;;;17.10;63.70;;;;;;5058978;28;20029;-17
2022/03/11 05:16:36;;;;;;;5.15;4.65;;;17.10;63.80;;;;;;5059054;28;20508;-17
2022/03/11 05:19:01;;;;;;;4.25;3.88;;;17.10;63.70;;;;;;5058742;28;20112;-17
2022/03/11 05:21:27;;;;;;;4.78;4.38;;;17.10;63.70;;;;;;5067972;28;20501;-17
2022/03/11 05:23:53;;;;;;;4.85;4.43;;;17.10;63.80;;;;;;5066194;28;20472;-17
2022/03/11 05:26:24;;;;;;;4.57;4.15;;;17.10;63.70;;;;;;5058631;28;20083;-17
2022/03/11 05:28:55;;;;;;;4.35;3.95;;;17.10;63.80;;;;;;5058860;28;20087;-17
2022/03/11 05:31:21;;;;;;;4.88;4.40;;;17.10;63.60;;;;;;5074266;28;20024;-17
2022/03/11 05:33:50;;;;;;;5.13;4.28;;;17.20;63.80;;;;;;5058428;28;20482;-17
2022/03/11 05:36:16;;;;;;;4.28;3.88;;;17.10;64.20;;;;;;5058988;28;20074;-18
2022/03/11 05:38:41;;;;;;;4.10;3.80;;;17.10;64.30;;;;;;5058668;28;20028;-18
2022/03/11 05:41:07;;;;;;;4.10;3.80;;;17.20;64.00;;;;;;5058570;28;20394;-17
2022/03/11 05:43:32;;;;;;;4.20;3.90;;;17.20;64.20;;;;;;5058538;28;20104;-17
2022/03/11 05:45:58;;;;;;;3.80;3.50;;;17.10;64.40;;;;;;5058440;28;20489;-17
2022/03/11 05:48:23;;;;;;;4.20;3.85;;;17.10;64.30;;;;;;5058311;28;20032;-17
2022/03/11 05:50:49;;;;;;;3.80;3.50;;;17.20;64.40;;;;;;5058128;28;20525;-17
2022/03/11 05:53:15;;;;;;;4.45;4.05;;;17.20;64.60;;;;;;5058059;28;20025;-17
2022/03/11 05:55:41;;;;;;;3.90;3.60;;;17.10;64.60;;;;;;5058463;28;20498;-17
2022/03/11 05:58:06;;;;;;;3.83;3.50;;;17.10;64.70;;;;;;5058060;28;20032;-17
2022/03/11 06:00:32;;;;;;;3.95;3.65;;;17.10;64.60;;;;;;5058164;28;20029;-17
2022/03/11 06:02:58;;;;;;;4.13;3.63;;;17.10;64.80;;;;;;5082880;28;20043;-17
2022/03/11 06:05:24;;;;;;;3.47;3.17;;;17.10;64.60;;;;;;5098259;28;20072;-17
2022/03/11 06:07:49;;;;;;;3.67;3.38;;;17.10;64.80;;;;;;5073377;28;20021;-17
2022/03/11 06:10:15;;;;;;;3.67;3.38;;;17.10;64.90;;;;;;5060307;28;20025;-17
2022/03/11 06:12:40;;;;;;;3.17;2.97;;;17.00;65.10;;;;;;5066691;28;20096;-17
2022/03/11 06:15:11;;;;;;;4.43;4.03;;;17.00;65.40;;;;;;5063015;28;20880;-17
2022/03/11 06:17:36;;;;;;;4.25;3.85;;;17.00;65.50;;;;;;5073231;28;20036;-17
2022/03/11 06:20:03;;;;;;;4.97;4.53;;;17.00;65.90;;;;;;5072773;28;20056;-17
2022/03/11 06:22:28;;;;;;;4.93;4.15;;;17.00;65.70;;;;;;5066338;28;20032;-17
2022/03/11 06:24:54;;;;;;;4.97;4.57;;;17.00;65.90;;;;;;5072896;28;20024;-17
2022/03/11 06:27:20;;;;;;;5.30;4.80;;;17.00;66.30;;;;;;5057163;28;20029;-17
2022/03/11 06:29:45;;;;;;;5.55;4.80;;;17.10;66.40;;;;;;5063314;28;20029;-17
2022/03/11 06:32:11;;;;;;;5.38;4.88;;;17.10;66.50;;;;;;5066579;28;20028;-17
2022/03/11 06:34:37;;;;;;;6.18;4.88;;;17.10;66.50;;;;;;5068139;28;20103;-17
2022/03/11 06:37:03;;;;;;;5.43;4.90;;;17.10;66.60;;;;;;5077289;28;20021;-17
2022/03/11 06:39:28;;;;;;;5.20;4.70;;;17.10;66.30;;;;;;5074670;28;20102;-17
2022/03/11 06:41:54;;;;;;;5.70;4.90;;;17.10;66.50;;;;;;5074726;28;20029;-17
2022/03/11 06:44:20;;;;;;;5.60;5.13;;;17.10;66.80;;;;;;5061459;28;20032;-17
2022/03/11 06:46:45;;;;;;;5.97;5.28;;;17.10;66.60;;;;;;5057402;28;20029;-17
2022/03/11 06:49:11;;;;;;;4.88;4.47;;;17.10;66.60;;;;;;5059190;28;20088;-17
2022/03/11 06:51:36;;;;;;;5.10;4.68;;;17.10;66.60;;;;;;5065973;28;20059;-17
2022/03/11 06:54:04;;;;;;;5.03;4.63;;;17.20;66.70;;;;;;5057110;28;20061;-17
2022/03/11 06:56:30;;;;;;;5.57;5.07;;;17.10;66.40;;;;;;5075015;28;20028;-17
2022/03/11 06:58:56;;;;;;;5.72;5.00;;;17.10;66.50;;;;;;5065038;28;20473;-17
2022/03/11 07:01:21;;;;;;;5.93;4.60;;;17.10;66.60;;;;;;5057147;28;20035;-17
2022/03/11 07:03:47;;;;;;;6.57;4.68;;;17.10;66.60;;;;;;5061613;28;20036;-17
2022/03/11 07:06:13;;;;;;;7.75;5.25;;;17.10;66.60;;;;;;5073686;28;20025;-17
2022/03/11 07:08:38;;;;;;;5.25;4.78;;;17.10;66.90;;;;;;5076359;28;20029;-17
2022/03/11 07:11:04;;;;;;;5.95;5.20;;;17.10;66.70;;;;;;5075573;28;20033;-17
2022/03/11 07:13:30;;;;;;;9.75;6.25;;;17.10;67.10;;;;;;5073522;28;20024;-17
2022/03/11 07:15:56;;;;;;;9.60;7.53;;;17.10;67.60;;;;;;5056210;28;20033;-17
2022/03/11 07:18:21;;;;;;;7.18;6.25;;;17.30;67.70;;;;;;5066917;28;20055;-17
2022/03/11 07:20:48;;;;;;;8.20;6.28;;;17.20;67.50;;;;;;5062727;28;20041;-17
2022/03/11 07:23:14;;;;;;;6.72;5.93;;;17.20;67.20;;;;;;5055706;28;20029;-18
2022/03/11 07:25:40;;;;;;;11.68;6.18;;;17.20;67.10;;;;;;5056745;28;20037;-17
2022/03/11 07:28:05;;;;;;;7.72;6.95;;;17.10;67.20;;;;;;5062561;28;20029;-17
2022/03/11 07:30:31;;;;;;;8.23;6.00;;;17.10;67.20;;;;;;5066534;28;20037;-17
2022/03/11 07:32:57;;;;;;;7.93;6.78;;;17.10;67.10;;;;;;5063054;28;20025;-17
2022/03/11 07:35:23;;;;;;;10.32;7.63;;;17.10;67.20;;;;;;5057938;28;20021;-17
2022/03/11 07:37:50;;;;;;;9.25;7.03;;;17.10;67.50;;;;;;5062281;28;20029;-17
2022/03/11 07:40:15;;;;;;;9.63;6.30;;;17.20;67.50;;;;;;5072968;28;20021;-17
2022/03/11 07:42:42;;;;;;;11.35;7.45;;;17.20;67.70;;;;;;5062221;28;20070;-17
2022/03/11 07:45:17;;;;;;;18.85;7.55;;;17.10;67.60;;;;;;5089598;28;20493;-20
2022/03/11 07:47:43;;;;;;;11.15;7.03;;;17.20;68.20;;;;;;5073891;28;20028;-20
2022/03/11 07:50:09;;;;;;;11.13;7.68;;;17.20;68.00;;;;;;5055051;28;20028;-20
2022/03/11 07:52:35;;;;;;;9.30;7.35;;;17.10;68.00;;;;;;5076083;28;20025;-19
2022/03/11 07:55:00;;;;;;;8.32;6.72;;;17.20;68.00;;;;;;5057058;28;20036;-20
2022/03/11 07:57:26;;;;;;;13.18;6.72;;;17.10;68.10;;;;;;5051212;28;20648;-19
2022/03/11 07:59:52;;;;;;;12.77;6.95;;;17.10;68.00;;;;;;5049882;28;20039;-19
2022/03/11 08:02:17;;;;;;;41.80;20.45;;;17.20;67.90;;;;;;5051022;28;20029;-19
2022/03/11 08:04:43;;;;;;;36.13;20.70;;;17.20;67.50;;;;;;5049364;28;20056;-19
2022/03/11 08:07:11;;;;;;;31.67;17.63;;;17.20;67.80;;;;;;5052482;28;20131;-20
2022/03/11 08:09:38;;;;;;;26.92;16.35;;;17.20;67.80;;;;;;5051736;28;20044;-20
2022/03/11 08:12:04;;;;;;;32.55;17.17;;;17.20;67.50;;;;;;5049871;28;20044;-20
2022/03/11 08:14:30;;;;;;;37.42;17.40;;;17.30;67.40;;;;;;5046305;28;20036;-20
2022/03/11 08:16:56;;;;;;;30.45;16.90;;;17.30;67.60;;;;;;5043471;28;20033;-19
2022/03/11 08:19:24;;;;;;;30.83;15.30;;;17.30;67.20;;;;;;5052832;28;20063;-20
2022/03/11 08:21:51;;;;;;;27.35;14.35;;;17.30;67.10;;;;;;5050146;28;20047;-20
2022/03/11 08:24:17;;;;;;;23.02;14.35;;;17.40;67.10;;;;;;5051371;28;20095;-20
2022/03/11 08:26:43;;;;;;;27.38;12.82;;;17.40;67.00;;;;;;5045187;28;20032;-20
2022/03/11 08:29:09;;;;;;;20.88;12.55;;;17.40;67.00;;;;;;5051651;28;20040;-20
2022/03/11 08:31:34;;;;;;;24.50;12.75;;;17.40;66.80;;;;;;5049900;28;20088;-19
2022/03/11 08:34:00;;;;;;;23.13;13.18;;;17.40;66.70;;;;;;5041981;28;20040;-19
2022/03/11 08:36:26;;;;;;;21.35;12.70;;;17.40;66.70;;;;;;5049037;28;20032;-19
2022/03/11 08:38:51;;;;;;;20.13;12.57;;;17.40;66.60;;;;;;5059401;28;20035;-20
2022/03/11 08:41:19;;;;;;;25.65;12.02;;;17.50;66.40;;;;;;5045529;28;20576;-19
2022/03/11 08:43:49;;;;;;;16.25;10.95;;;17.50;66.40;;;;;;5048665;28;20109;-20
2022/03/11 08:46:14;;;;;;;19.25;11.73;;;17.50;66.50;;;;;;5053413;28;20100;-20
2022/03/11 08:48:41;;;;;;;19.80;11.27;;;17.50;66.30;;;;;;5061538;28;20112;-20
2022/03/11 08:51:06;;;;;;;21.63;12.43;;;17.50;66.20;;;;;;5045570;28;20108;-20
2022/03/11 08:53:32;;;;;;;18.45;12.32;;;17.50;66.10;;;;;;5050576;28;20024;-19
2022/03/11 08:55:58;;;;;;;18.00;10.45;;;17.60;65.90;;;;;;5050856;28;20111;-20
2022/03/11 08:58:23;;;;;;;19.30;11.40;;;17.60;65.70;;;;;;5058215;28;20068;-20
2022/03/11 09:00:49;;;;;;;14.73;10.25;;;17.60;66.00;;;;;;5062173;28;20100;-20
2022/03/11 09:03:15;;;;;;;20.02;11.55;;;17.60;65.90;;;;;;5047643;28;20041;-19
2022/03/11 09:05:40;;;;;;;18.10;10.80;;;17.60;65.60;;;;;;5045082;28;20583;-19
2022/03/11 09:08:09;;;;;;;16.70;10.23;;;17.60;66.20;;;;;;5050677;28;20432;-19
2022/03/11 09:10:35;;;;;;;16.15;10.50;;;17.70;65.70;;;;;;5057963;28;20033;-20
2022/03/11 09:13:01;;;;;;;16.02;10.82;;;17.70;65.50;;;;;;5057581;28;20524;-19
2022/03/11 09:15:26;;;;;;;16.45;10.93;;;17.70;65.30;;;;;;5064260;28;20035;-20
2022/03/11 09:17:52;;;;;;;15.15;10.40;;;17.70;65.10;;;;;;5059250;28;20039;-20
2022/03/11 09:20:18;;;;;;;17.38;10.52;;;17.70;65.00;;;;;;5044354;28;20053;-20
2022/03/11 09:22:43;;;;;;;15.60;9.90;;;17.70;65.30;;;;;;5044890;28;20045;-20
2022/03/11 09:25:10;;;;;;;14.75;9.90;;;17.70;65.10;;;;;;5044587;28;20525;-19
2022/03/11 09:27:36;;;;;;;16.83;10.65;;;17.70;64.90;;;;;;5048434;28;20041;-19
2022/03/11 09:30:03;;;;;;;15.77;9.88;;;17.60;65.30;;;;;;5046438;28;20029;-20
2022/03/11 09:32:28;;;;;;;15.07;9.32;;;17.70;64.80;;;;;;5062412;28;20714;-20
2022/03/11 09:34:54;;;;;;;15.40;9.85;;;17.70;65.30;;;;;;5049286;28;20111;-20
2022/03/11 09:37:20;;;;;;;14.63;9.57;;;17.60;65.40;;;;;;5049685;28;20083;-20
2022/03/11 09:39:45;;;;;;;13.90;9.48;;;17.80;65.10;;;;;;5049500;28;20099;-20
2022/03/11 09:42:12;;;;;;;15.23;9.80;;;17.80;64.80;;;;;;5048288;28;20032;-19
2022/03/11 09:44:38;;;;;;;15.07;9.82;;;17.70;64.60;;;;;;5049017;28;20037;-20
2022/03/11 09:47:04;;;;;;;14.52;8.82;;;17.70;64.80;;;;;;5046684;28;20498;-20
2022/03/11 09:49:34;;;;;;;14.25;8.70;;;17.80;64.50;;;;;;5048772;28;21583;-17
2022/03/11 09:52:00;;;;;;;11.43;8.35;;;17.80;64.50;;;;;;5045705;28;20041;-20
2022/03/11 09:54:25;;;;;;;14.75;8.88;;;17.80;64.60;;;;;;5046074;28;20028;-19
2022/03/11 09:56:51;;;;;;;12.43;8.27;;;17.70;64.60;;;;;;5044296;28;20028;-20
2022/03/11 09:59:18;;;;;;;12.82;8.32;;;17.70;64.70;;;;;;5059609;28;20033;-19
2022/03/11 10:01:43;;;;;;;12.63;8.45;;;17.80;64.50;;;;;;5044541;28;20037;-20
2022/03/11 10:04:09;;;;;;;13.45;8.40;;;17.80;64.40;;;;;;5052207;28;20036;-20
2022/03/11 10:06:42;;;;;;;11.85;8.10;;;17.80;64.40;;;;;;5046971;28;20571;-19
2022/03/11 10:09:19;;;;;;;11.82;8.50;;;17.80;64.20;;;;;;5059034;28;20032;-20
2022/03/11 10:11:56;;;;;;;12.82;8.68;;;17.90;64.20;;;;;;5050214;28;20040;-20
2022/03/11 10:14:32;;;;;;;10.90;7.72;;;17.80;64.30;;;;;;5061210;28;20024;-20
2022/03/11 10:16:58;;;;;;;9.13;7.63;;;17.90;64.20;;;;;;5050669;28;20033;-19
2022/03/11 10:19:24;;;;;;;11.25;7.70;;;17.80;64.00;;;;;;5046647;28;20083;-20
2022/03/11 10:21:50;;;;;;;12.45;8.48;;;17.80;64.10;;;;;;5059029;28;20151;-20
2022/03/11 10:24:18;;;;;;;10.60;7.32;;;17.90;64.20;;;;;;5052953;28;20182;-20
2022/03/11 10:26:46;;;;;;;10.30;7.88;;;17.90;64.00;;;;;;5048664;28;20036;-17
2022/03/11 10:29:17;;;;;;;11.13;8.02;;;17.80;64.10;;;;;;5072820;28;20039;-20
2022/03/11 10:31:45;;;;;;;8.82;6.90;;;17.90;64.10;;;;;;5072119;28;20392;-19
2022/03/11 10:34:21;;;;;;;10.73;7.53;;;17.90;64.10;;;;;;5057232;28;20021;-19
2022/03/11 10:36:53;;;;;;;11.82;7.82;;;17.80;64.20;;;;;;5067515;28;20028;-20
2022/03/11 10:39:31;;;;;;;10.15;7.28;;;17.70;64.40;;;;;;5077277;28;20088;-20
2022/03/11 10:41:59;;;;;;;7.93;7.10;;;17.70;64.40;;;;;;5071119;28;20039;-20
2022/03/11 10:44:28;;;;;;;8.23;6.57;;;17.80;64.40;;;;;;5073459;28;20142;-20
2022/03/11 10:46:55;;;;;;;7.07;6.10;;;17.80;64.30;;;;;;5076856;28;20390;-20
2022/03/11 10:49:33;;;;;;;8.73;6.20;;;17.90;64.20;;;;;;5076864;28;20016;-17
2022/03/11 10:52:02;;;;;;;8.95;6.50;;;17.80;64.20;;;;;;5077017;28;20032;-17
2022/03/11 10:54:28;;;;;;;7.75;6.28;;;17.80;64.30;;;;;;5075514;28;20109;-17
2022/03/11 10:56:54;;;;;;;10.63;7.10;;;17.70;64.40;;;;;;5070542;28;20029;-17
2022/03/11 10:59:31;;;;;;;10.25;6.35;;;17.80;64.30;;;;;;5057136;28;20025;-17
2022/03/11 11:01:57;;;;;;;9.70;6.80;;;17.80;64.30;;;;;;5057193;28;20025;-17
2022/03/11 11:04:23;;;;;;;6.95;6.22;;;17.80;64.20;;;;;;5074066;28;20086;-17
2022/03/11 11:06:48;;;;;;;8.07;6.53;;;17.80;65.10;;;;;;5072048;28;20033;-17
2022/03/11 11:09:17;;;;;;;7.38;5.60;;;17.70;64.30;;;;;;5056731;28;20071;-17
2022/03/11 11:11:42;;;;;;;7.28;5.90;;;17.80;64.50;;;;;;5057015;28;20029;-17
2022/03/11 11:14:08;;;;;;;7.18;6.25;;;17.70;64.40;;;;;;5056656;28;20025;-17
2022/03/11 11:16:40;;;;;;;9.07;7.05;;;17.70;64.60;;;;;;5072476;28;20611;-17
2022/03/11 11:19:23;;;;;;;7.05;6.35;;;17.70;64.60;;;;;;5064617;28;20041;-17
2022/03/11 11:21:50;;;;;;;9.85;6.25;;;17.70;64.50;;;;;;5074922;28;20043;-17
2022/03/11 11:24:23;;;;;;;9.20;6.70;;;17.60;64.90;;;;;;5073580;28;20094;-17
2022/03/11 11:26:55;;;;;;;8.40;6.20;;;17.70;64.90;;;;;;4712849;28;10000561;-17
2022/03/11 11:29:32;;;;;;;7.95;6.45;;;17.70;64.60;;;;;;5070119;28;20028;-17
2022/03/11 11:31:58;;;;;;;7.22;6.00;;;17.70;64.80;;;;;;5055504;28;20080;-17
2022/03/11 11:34:37;;;;;;;8.80;6.30;;;17.70;64.70;;;;;;5049945;28;20100;-17
2022/03/11 11:37:04;;;;;;;9.63;6.15;;;17.80;64.60;;;;;;5068699;28;20063;-20
2022/03/11 11:39:40;;;;;;;7.93;5.88;;;17.80;64.90;;;;;;5073762;28;20066;-19
2022/03/11 11:42:08;;;;;;;9.55;5.28;;;17.80;64.70;;;;;;5068075;28;20389;-20
2022/03/11 11:44:35;;;;;;;8.70;5.90;;;17.90;64.80;;;;;;5064308;28;20044;-19
2022/03/11 11:47:09;;;;;;;8.30;6.10;;;17.90;64.90;;;;;;5066777;28;20033;-20
2022/03/11 11:49:48;;;;;;;9.80;7.80;;;17.90;64.70;;;;;;5061544;28;20032;-19
2022/03/11 11:52:27;;;;;;;10.35;8.48;;;17.90;65.00;;;;;;5064715;28;20033;-20
2022/03/11 11:54:52;;;;;;;12.93;9.05;;;17.90;64.80;;;;;;5060962;28;20024;-20
2022/03/11 11:57:18;;;;;;;11.57;9.68;;;17.90;65.00;;;;;;5069669;28;20029;-20
2022/03/11 11:59:46;;;;;;;13.65;10.45;;;18.00;65.00;;;;;;5071154;28;20033;-20
2022/03/11 12:02:31;;;;;;;17.00;10.52;;;17.90;64.90;;;;;;5070733;28;20036;-17
2022/03/11 12:04:56;;;;;;;16.00;11.55;;;17.90;65.00;;;;;;5072022;28;20556;-17
2022/03/11 12:07:43;;;;;;;16.25;11.02;;;17.90;65.00;;;;;;5069473;28;20096;-17
2022/03/11 12:10:35;;;;;;;13.93;10.55;;;17.90;65.00;;;;;;4718591;28;10000548;-17
2022/03/11 12:13:01;;;;;;;17.60;12.02;;;17.90;65.00;;;;;;5069934;28;20048;-17
2022/03/11 12:15:31;;;;;;;15.45;11.75;;;17.90;64.90;;;;;;5069278;28;20039;-16
2022/03/11 12:18:00;;;;;;;16.67;11.57;;;18.00;65.10;;;;;;5073258;28;20093;-18
2022/03/11 12:20:35;;;;;;;16.15;11.30;;;17.90;64.90;;;;;;5073024;28;21948;-19
2022/03/11 12:23:13;;;;;;;15.15;11.35;;;18.00;64.90;;;;;;5074631;28;20039;-19
2022/03/11 12:25:54;;;;;;;13.60;10.35;;;18.00;64.80;;;;;;5075986;28;20099;-19
2022/03/11 12:28:35;;;;;;;13.57;10.80;;;18.00;65.00;;;;;;5074530;28;20036;-19
2022/03/11 12:31:03;;;;;;;12.00;9.73;;;18.00;64.80;;;;;;5073589;28;20119;-19
2022/03/11 12:33:53;;;;;;;14.60;10.25;;;18.00;64.90;;;;;;5056931;28;20036;-19
2022/03/11 12:36:22;;;;;;;13.10;9.82;;;18.00;64.80;;;;;;5070764;28;20052;-19